createdAt,value
2022-08-26T00:08:39.045Z,100279.28
2022-08-26T00:18:44.537Z,100273.28
2022-08-26T00:28:47.605Z,100263.47
2022-08-26T00:38:51.279Z,100261.84
2022-08-26T00:49:03.429Z,100265.19
2022-08-26T00:59:11.417Z,100264.22
2022-08-26T01:09:14.473Z,100272.31
2022-08-26T01:19:31.870Z,100283.19
2022-08-26T01:29:38.163Z,100287.72
2022-08-26T01:39:43.421Z,100290.88
2022-08-26T01:49:51.511Z,100281.56
2022-08-26T02:00:01.728Z,100290.06
2022-08-26T02:10:15.200Z,100285.38
2022-08-26T02:20:20.493Z,100281.19
2022-08-26T02:30:29.723Z,100283.81
2022-08-26T02:40:36.694Z,100284.47
2022-08-26T02:50:40.794Z,100277.28
2022-08-26T03:00:53.059Z,100282.94
2022-08-26T03:10:56.887Z,100283.44
2022-08-26T03:21:06.762Z,100284.56
2022-08-26T03:31:09.755Z,100284.66
2022-08-26T03:41:14.037Z,100282.28
2022-08-26T03:51:19.854Z,100291.19
2022-08-26T04:01:23.393Z,100282.47
2022-08-26T04:11:34.078Z,100277.41
2022-08-26T04:21:38.682Z,100286.75
2022-08-26T04:31:41.840Z,100286.91
2022-08-26T04:41:44.864Z,100280.94
2022-08-26T04:51:49.248Z,100278.53
2022-08-26T05:01:57.494Z,100266.59
2022-08-26T05:12:01.062Z,100287.84
2022-08-26T05:22:05.654Z,100284.41
2022-08-26T05:32:08.843Z,100289.31
2022-08-26T05:42:15.469Z,100287.81
2022-08-26T05:52:19.314Z,100297.59
2022-08-26T06:02:25.697Z,100300.00
2022-08-26T06:12:30.252Z,100303.41
2022-08-26T06:22:51.921Z,100317.81
2022-08-26T06:32:55.181Z,100327.53
2022-08-26T06:42:58.196Z,100313.00
2022-08-26T06:53:01.495Z,100316.84
2022-08-26T07:03:07.110Z,100304.06
2022-08-26T07:13:16.447Z,100314.06
2022-08-26T07:23:42.711Z,100323.31
2022-08-26T10:51:27.009Z,100164.38
2022-08-26T11:02:16.046Z,100167.41
2022-08-26T11:12:49.152Z,100157.31
2022-08-26T11:22:54.918Z,100142.06
2022-08-26T11:32:59.861Z,100129.81
2022-08-26T11:43:08.769Z,100118.59
2022-08-26T11:53:19.211Z,100111.63
2022-08-26T12:03:26.151Z,100092.16
2022-08-26T12:13:29.348Z,100088.91
2022-08-26T12:23:34.414Z,100084.28
2022-08-26T12:33:39.695Z,100079.94
2022-08-26T12:43:44.979Z,100068.88
2022-08-26T12:53:48.080Z,100051.69
2022-08-26T13:03:51.969Z,100059.31
2022-08-26T13:14:10.662Z,100045.72
2022-08-26T13:24:23.253Z,100046.25
2022-08-26T13:34:27.232Z,100035.66
2022-08-26T13:44:30.155Z,100009.34
2022-08-26T13:54:33.524Z,100008.41
2022-08-26T14:04:36.756Z,100008.47
2022-08-26T14:14:39.802Z,100004.97
2022-08-26T14:24:44.325Z,100006.37
2022-08-26T14:34:47.335Z,99990.59
2022-08-26T14:44:56.413Z,99986.00
2022-08-26T14:54:59.617Z,99987.56
2022-08-26T15:05:04.180Z,99991.91
2022-08-26T15:15:09.076Z,99988.38
2022-08-26T15:25:12.479Z,99999.28
2022-08-26T15:35:15.571Z,99997.12
2022-08-26T15:45:24.813Z,99995.63
2022-08-26T15:55:29.749Z,99979.34
2022-08-26T16:05:37.196Z,99975.31
2022-08-26T16:15:40.459Z,99977.63
2022-08-26T16:25:45.002Z,99942.34
2022-08-26T16:35:48.229Z,99957.53
2022-08-26T16:45:52.551Z,99944.34
2022-08-26T16:55:55.990Z,99943.84
2022-08-26T17:05:59.352Z,99928.97
2022-08-26T17:16:04.260Z,99928.28
2022-08-26T17:26:08.214Z,99923.84
2022-08-26T17:36:11.361Z,99925.53
2022-08-26T17:46:14.430Z,99930.09
2022-08-26T17:56:20.731Z,99937.31
2022-08-26T18:06:26.149Z,99940.31
2022-08-26T18:16:31.716Z,99942.44
2022-08-26T18:26:38.903Z,99924.22
2022-08-26T18:36:43.042Z,99944.66
2022-08-26T18:46:46.868Z,99945.19
2022-08-26T18:56:49.877Z,99947.41
2022-08-26T19:06:53.327Z,99950.34
2022-08-26T19:16:56.428Z,99946.44
2022-08-26T19:27:01.594Z,99956.09
2022-08-26T19:37:04.950Z,99960.09
2022-08-26T19:47:10.636Z,99966.06
2022-08-26T19:57:13.708Z,99966.38
2022-08-26T20:07:18.899Z,99977.53
2022-08-26T20:17:22.882Z,99985.41
2022-08-26T20:27:34.385Z,99982.81
2022-08-26T20:37:42.720Z,99985.25
2022-08-26T20:47:46.196Z,99988.63
2022-08-26T20:57:49.653Z,99996.62
2022-08-26T21:07:53.347Z,99958.38
2022-08-26T21:17:58.184Z,99985.34
2022-08-26T21:28:01.403Z,99994.53
2022-08-26T21:38:04.669Z,100007.88
2022-08-26T21:48:08.038Z,100009.09
2022-08-26T21:58:12.635Z,100011.22
2022-08-26T22:08:15.854Z,100010.41
2022-08-26T22:18:21.340Z,100019.63
2022-08-26T22:28:25.159Z,100016.84
2022-08-26T22:38:28.266Z,100018.56
2022-08-26T22:48:31.320Z,100017.50
2022-08-26T22:58:34.691Z,100019.06
2022-08-26T23:08:39.305Z,100012.75
2022-08-26T23:18:43.248Z,100010.78
2022-08-26T23:28:46.281Z,100010.22
2022-08-26T23:38:52.674Z,100013.19
2022-08-26T23:48:56.045Z,99991.31
2022-08-26T23:58:59.218Z,99986.37
